Pineville, Pennsylvania
Current Conditions -  °F | °C
As of 6:54 AM on Friday 21 Nov 2014 (Local Time) from KDYL Reporting Station
Clear Clear  
Wind Chill: 14°   Ceiling: Unl
Heat Index: 23°   Visibility: 10mi
Dew Point: 10°   Wind: 8mph
Humidity: 58%   Direction: 280°W
Pressure: 30.23"   Gusts: NA
Location:  40.29°N, 75.01°W
Report Text: KDYL 211154Z AUTO 28007KT 10SM CLR M05/M12 A3023 RMK AO2 SLP244 T10501122 11033 21050 53034
Loading
Personal Weather Stations






























Interactive Weather Map New forecast layout! Learn more

10-Day Weather Forecast

Advertisements
Track Severe Weather on mobile